Overview Statistics Trail Chart Weather Telemetry Raw packets
 

This is the latest recevied weather packets stored in our database for station/object xx2mm-11. If no packets are shown the sender has not sent any weather packets the latest 10 day(s).

<< 319 320 321 322 323 324 325 >>
Time Temp. Humidity Pressure Rain* Wind** Luminosity Snow
1777176248 25° C 57% 1007 hPa - - - -
1777176178 24.44° C 58% 1007 hPa - - - -
1777176106 25° C 57% 1007 hPa - - - -
1777176033 24.44° C 59% 1007 hPa - - - -
1777175961 25° C 57% 1007 hPa - - - -
1777175893 23.89° C 62% 1007.1 hPa - - - -
1777175825 23.89° C 62% 1007.1 hPa - - - -
1777175756 23.89° C 62% 1007.1 hPa - - - -
1777175688 24.44° C 60% 1007.1 hPa - - - -
1777175619 24.44° C 59% 1007.1 hPa - - - -
1777175551 25° C 56% 1007.1 hPa - - - -
1777175483 25° C 56% 1007.1 hPa - - - -
1777175414 25° C 57% 1007.2 hPa - - - -
1777175345 25.56° C 56% 1007.2 hPa - - - -
1777175276 25° C 56% 1007.2 hPa - - - -
1777175207 25° C 58% 1007.2 hPa - - - -
1777175136 24.44° C 56% 1007.2 hPa - - - -
1777175067 25° C 54% 1007.2 hPa - - - -
1777174998 24.44° C 58% 1007.2 hPa - - - -
1777174929 23.89° C 61% 1007.3 hPa - - - -
1777174859 23.89° C 60% 1007.3 hPa - - - -
1777174790 23.89° C 62% 1007.3 hPa - - - -
1777174721 23.89° C 61% 1007.3 hPa - - - -
1777174652 24.44° C 60% 1007.3 hPa - - - -
1777174583 23.89° C 62% 1007.3 hPa - - - -

* Rain since midnight (hover to see other rain measurements)
** Current wind speed in m/s (hover to see current wind gust speed)